sensor_id;sensor_type;location;lat;lon;timestamp;pressure;altitude;pressure_sealevel;temperature;humidity
50368;BME280;36281;34.132;-118.018;2024-02-15T00:00:20;100392.59;;;19.44;42.43
50368;BME280;36281;34.132;-118.018;2024-02-15T00:02:49;100391.00;;;19.43;42.48
50368;BME280;36281;34.132;-118.018;2024-02-15T00:05:18;100369.38;;;19.27;42.92
50368;BME280;36281;34.132;-118.018;2024-02-15T00:07:47;100402.47;;;19.33;42.65
50368;BME280;36281;34.132;-118.018;2024-02-15T00:10:19;100401.97;;;19.36;42.75
50368;BME280;36281;34.132;-118.018;2024-02-15T00:12:51;100404.06;;;19.34;43.05
50368;BME280;36281;34.132;-118.018;2024-02-15T00:15:22;100402.41;;;19.28;43.24
50368;BME280;36281;34.132;-118.018;2024-02-15T00:17:51;100411.53;;;19.27;42.92
50368;BME280;36281;34.132;-118.018;2024-02-15T00:20:21;100409.63;;;19.22;43.54
50368;BME280;36281;34.132;-118.018;2024-02-15T00:22:50;100410.69;;;19.21;43.65
50368;BME280;36281;34.132;-118.018;2024-02-15T00:25:20;100415.22;;;19.16;44.32
50368;BME280;36281;34.132;-118.018;2024-02-15T00:27:49;100407.56;;;19.02;45.13
50368;BME280;36281;34.132;-118.018;2024-02-15T00:30:18;100412.38;;;19.00;45.14
50368;BME280;36281;34.132;-118.018;2024-02-15T00:32:49;100411.81;;;18.98;45.16
50368;BME280;36281;34.132;-118.018;2024-02-15T00:35:20;100408.50;;;18.86;45.53
50368;BME280;36281;34.132;-118.018;2024-02-15T00:37:49;100405.50;;;18.82;46.08
50368;BME280;36281;34.132;-118.018;2024-02-15T00:40:18;100406.25;;;18.78;46.88
50368;BME280;36281;34.132;-118.018;2024-02-15T00:42:49;100397.50;;;18.66;47.42
50368;BME280;36281;34.132;-118.018;2024-02-15T00:45:18;100393.72;;;18.62;47.89
50368;BME280;36281;34.132;-118.018;2024-02-15T00:47:49;100399.50;;;18.53;48.14
50368;BME280;36281;34.132;-118.018;2024-02-15T00:50:18;100404.31;;;18.51;48.28
50368;BME280;36281;34.132;-118.018;2024-02-15T00:52:47;100394.84;;;18.44;48.55
50368;BME280;36281;34.132;-118.018;2024-02-15T00:55:17;100402.81;;;18.39;48.61
50368;BME280;36281;34.132;-118.018;2024-02-15T00:57:46;100405.69;;;18.32;48.89
50368;BME280;36281;34.132;-118.018;2024-02-15T01:00:15;100410.19;;;18.26;49.44
50368;BME280;36281;34.132;-118.018;2024-02-15T01:02:45;100418.47;;;18.25;49.63
50368;BME280;36281;34.132;-118.018;2024-02-15T01:05:16;100420.28;;;18.19;49.99
50368;BME280;36281;34.132;-118.018;2024-02-15T01:07:45;100421.59;;;18.17;50.25
50368;BME280;36281;34.132;-118.018;2024-02-15T01:10:35;100419.00;;;18.05;50.56
50368;BME280;36281;34.132;-118.018;2024-02-15T01:13:20;100422.59;;;17.94;51.08
50368;BME280;36281;34.132;-118.018;2024-02-15T01:15:49;100432.03;;;17.79;51.63
50368;BME280;36281;34.132;-118.018;2024-02-15T01:18:18;100430.97;;;17.64;51.95
50368;BME280;36281;34.132;-118.018;2024-02-15T01:20:49;100434.16;;;17.61;52.39
50368;BME280;36281;34.132;-118.018;2024-02-15T01:23:19;100438.47;;;17.62;52.88
50368;BME280;36281;34.132;-118.018;2024-02-15T01:25:48;100419.31;;;17.36;52.85
50368;BME280;36281;34.132;-118.018;2024-02-15T01:28:17;100442.09;;;17.39;53.23
50368;BME280;36281;34.132;-118.018;2024-02-15T01:30:46;100441.91;;;17.28;53.79
50368;BME280;36281;34.132;-118.018;2024-02-15T01:33:18;100442.66;;;17.24;53.96
50368;BME280;36281;34.132;-118.018;2024-02-15T01:35:49;100440.03;;;17.12;54.24
50368;BME280;36281;34.132;-118.018;2024-02-15T01:38:18;100443.34;;;17.02;54.68
50368;BME280;36281;34.132;-118.018;2024-02-15T01:40:47;100449.56;;;16.91;54.97
50368;BME280;36281;34.132;-118.018;2024-02-15T01:43:17;100453.41;;;16.84;55.08
50368;BME280;36281;34.132;-118.018;2024-02-15T01:45:46;100454.22;;;16.84;54.92
50368;BME280;36281;34.132;-118.018;2024-02-15T01:48:19;100459.72;;;16.77;55.24
50368;BME280;36281;34.132;-118.018;2024-02-15T01:50:50;100466.38;;;16.63;55.75
50368;BME280;36281;34.132;-118.018;2024-02-15T01:53:21;100465.31;;;16.64;55.89
50368;BME280;36281;34.132;-118.018;2024-02-15T01:55:50;100466.97;;;16.53;56.20
50368;BME280;36281;34.132;-118.018;2024-02-15T01:58:21;100468.88;;;16.41;56.72
50368;BME280;36281;34.132;-118.018;2024-02-15T02:00:50;100477.69;;;16.30;56.88
50368;BME280;36281;34.132;-118.018;2024-02-15T02:03:22;100473.66;;;16.27;57.20
50368;BME280;36281;34.132;-118.018;2024-02-15T02:05:53;100476.09;;;16.17;58.07
50368;BME280;36281;34.132;-118.018;2024-02-15T02:08:22;100477.03;;;16.11;58.35
50368;BME280;36281;34.132;-118.018;2024-02-15T02:10:52;100479.56;;;15.94;59.11
50368;BME280;36281;34.132;-118.018;2024-02-15T02:13:21;100485.72;;;15.83;59.45
50368;BME280;36281;34.132;-118.018;2024-02-15T02:15:50;100486.06;;;15.75;60.04
50368;BME280;36281;34.132;-118.018;2024-02-15T02:18:20;100493.00;;;15.76;60.40
50368;BME280;36281;34.132;-118.018;2024-02-15T02:20:49;100497.28;;;15.65;60.52
50368;BME280;36281;34.132;-118.018;2024-02-15T02:23:21;100501.81;;;15.65;60.40
50368;BME280;36281;34.132;-118.018;2024-02-15T02:25:57;100505.25;;;15.54;60.78
50368;BME280;36281;34.132;-118.018;2024-02-15T02:28:26;100501.53;;;15.55;61.26
50368;BME280;36281;34.132;-118.018;2024-02-15T02:30:55;100500.47;;;15.44;61.45
50368;BME280;36281;34.132;-118.018;2024-02-15T02:33:25;100507.97;;;15.35;61.62
50368;BME280;36281;34.132;-118.018;2024-02-15T02:35:57;100500.53;;;15.25;62.13
50368;BME280;36281;34.132;-118.018;2024-02-15T02:38:26;100508.19;;;15.22;62.18
50368;BME280;36281;34.132;-118.018;2024-02-15T02:40:58;100503.06;;;15.20;61.65
50368;BME280;36281;34.132;-118.018;2024-02-15T02:43:27;100501.53;;;15.13;62.24
50368;BME280;36281;34.132;-118.018;2024-02-15T02:45:56;100508.72;;;15.12;62.24
50368;BME280;36281;34.132;-118.018;2024-02-15T02:48:25;100507.63;;;15.02;62.69
50368;BME280;36281;34.132;-118.018;2024-02-15T02:50:56;100517.34;;;14.96;63.25
50368;BME280;36281;34.132;-118.018;2024-02-15T02:53:25;100516.84;;;14.87;63.97
50368;BME280;36281;34.132;-118.018;2024-02-15T02:55:55;100526.31;;;14.83;64.53
50368;BME280;36281;34.132;-118.018;2024-02-15T02:58:26;100525.22;;;14.72;65.19
50368;BME280;36281;34.132;-118.018;2024-02-15T03:00:55;100524.94;;;14.62;65.83
50368;BME280;36281;34.132;-118.018;2024-02-15T03:03:26;100524.63;;;14.52;66.49
50368;BME280;36281;34.132;-118.018;2024-02-15T03:05:55;100530.63;;;14.41;66.68
50368;BME280;36281;34.132;-118.018;2024-02-15T03:08:25;100525.16;;;14.36;67.30
50368;BME280;36281;34.132;-118.018;2024-02-15T03:10:54;100535.00;;;14.35;67.22
50368;BME280;36281;34.132;-118.018;2024-02-15T03:13:23;100541.66;;;14.26;67.79
50368;BME280;36281;34.132;-118.018;2024-02-15T03:15:53;100547.44;;;14.48;67.75
50368;BME280;36281;34.132;-118.018;2024-02-15T03:18:22;100551.88;;;14.29;67.82
50368;BME280;36281;34.132;-118.018;2024-02-15T03:20:53;100555.84;;;14.20;68.36
50368;BME280;36281;34.132;-118.018;2024-02-15T03:23:22;100559.81;;;14.11;69.41
50368;BME280;36281;34.132;-118.018;2024-02-15T03:25:51;100553.75;;;14.04;69.19
50368;BME280;36281;34.132;-118.018;2024-02-15T03:28:20;100558.25;;;14.03;69.27
50368;BME280;36281;34.132;-118.018;2024-02-15T03:30:49;100571.19;;;14.00;69.56
50368;BME280;36281;34.132;-118.018;2024-02-15T03:33:20;100571.00;;;13.94;70.09
50368;BME280;36281;34.132;-118.018;2024-02-15T03:35:55;100573.19;;;14.04;70.08
50368;BME280;36281;34.132;-118.018;2024-02-15T03:38:28;100577.22;;;13.88;70.35
50368;BME280;36281;34.132;-118.018;2024-02-15T03:40:57;100584.38;;;13.88;70.00
50368;BME280;36281;34.132;-118.018;2024-02-15T03:43:26;100583.13;;;13.90;70.42
50368;BME280;36281;34.132;-118.018;2024-02-15T03:45:56;100581.00;;;13.74;71.66
50368;BME280;36281;34.132;-118.018;2024-02-15T03:48:27;100596.16;;;13.74;71.72
50368;BME280;36281;34.132;-118.018;2024-02-15T03:50:57;100584.13;;;13.64;72.14
50368;BME280;36281;34.132;-118.018;2024-02-15T03:53:27;100591.03;;;13.72;71.91
50368;BME280;36281;34.132;-118.018;2024-02-15T03:55:58;100600.72;;;13.60;72.54
50368;BME280;36281;34.132;-118.018;2024-02-15T03:58:29;100600.50;;;13.61;72.66
50368;BME280;36281;34.132;-118.018;2024-02-15T04:01:01;100599.13;;;13.52;73.29
50368;BME280;36281;34.132;-118.018;2024-02-15T04:03:34;100598.41;;;13.38;73.95
50368;BME280;36281;34.132;-118.018;2024-02-15T04:06:04;100606.56;;;13.37;73.76
50368;BME280;36281;34.132;-118.018;2024-02-15T04:08:33;100610.69;;;13.33;74.47
50368;BME280;36281;34.132;-118.018;2024-02-15T04:11:04;100613.59;;;13.25;74.29
50368;BME280;36281;34.132;-118.018;2024-02-15T04:13:34;100619.72;;;13.18;75.23
50368;BME280;36281;34.132;-118.018;2024-02-15T04:16:04;100624.03;;;13.13;75.41
50368;BME280;36281;34.132;-118.018;2024-02-15T04:18:35;100638.97;;;13.07;76.02
50368;BME280;36281;34.132;-118.018;2024-02-15T04:21:04;100634.94;;;12.98;76.50
50368;BME280;36281;34.132;-118.018;2024-02-15T04:23:35;100629.41;;;12.93;76.32
50368;BME280;36281;34.132;-118.018;2024-02-15T04:26:04;100634.53;;;12.88;77.17
50368;BME280;36281;34.132;-118.018;2024-02-15T04:28:33;100632.09;;;12.80;77.77
50368;BME280;36281;34.132;-118.018;2024-02-15T04:31:03;100629.84;;;12.77;77.57
50368;BME280;36281;34.132;-118.018;2024-02-15T04:33:32;100632.13;;;12.73;77.86
50368;BME280;36281;34.132;-118.018;2024-02-15T04:36:03;100638.25;;;12.60;78.47
50368;BME280;36281;34.132;-118.018;2024-02-15T04:38:35;100633.34;;;12.51;79.46
50368;BME280;36281;34.132;-118.018;2024-02-15T04:41:04;100630.47;;;12.52;79.45
50368;BME280;36281;34.132;-118.018;2024-02-15T04:43:37;100621.94;;;12.44;79.49
50368;BME280;36281;34.132;-118.018;2024-02-15T04:46:09;100629.69;;;12.38;79.84
50368;BME280;36281;34.132;-118.018;2024-02-15T04:48:38;100630.09;;;12.35;79.74
50368;BME280;36281;34.132;-118.018;2024-02-15T04:51:10;100626.84;;;12.33;80.33
50368;BME280;36281;34.132;-118.018;2024-02-15T04:53:40;100635.59;;;12.21;81.05
50368;BME280;36281;34.132;-118.018;2024-02-15T04:56:09;100632.72;;;12.22;80.83
50368;BME280;36281;34.132;-118.018;2024-02-15T04:58:42;100634.16;;;12.18;81.18
50368;BME280;36281;34.132;-118.018;2024-02-15T05:01:14;100645.00;;;12.10;82.25
50368;BME280;36281;34.132;-118.018;2024-02-15T05:03:47;100639.03;;;12.08;82.85
50368;BME280;36281;34.132;-118.018;2024-02-15T05:06:17;100648.47;;;12.10;82.18
50368;BME280;36281;34.132;-118.018;2024-02-15T05:08:47;100650.31;;;12.10;81.92
50368;BME280;36281;34.132;-118.018;2024-02-15T05:11:16;100654.59;;;12.04;82.47
50368;BME280;36281;34.132;-118.018;2024-02-15T05:13:48;100659.47;;;12.01;82.30
50368;BME280;36281;34.132;-118.018;2024-02-15T05:16:20;100663.97;;;11.94;82.53
50368;BME280;36281;34.132;-118.018;2024-02-15T05:18:49;100663.53;;;11.90;82.91
50368;BME280;36281;34.132;-118.018;2024-02-15T05:21:20;100670.25;;;11.86;83.67
50368;BME280;36281;34.132;-118.018;2024-02-15T05:23:49;100665.38;;;11.89;83.72
50368;BME280;36281;34.132;-118.018;2024-02-15T05:26:20;100680.66;;;11.87;83.88
50368;BME280;36281;34.132;-118.018;2024-02-15T05:28:51;100676.59;;;11.85;83.79
50368;BME280;36281;34.132;-118.018;2024-02-15T05:31:21;100683.66;;;11.78;84.19
50368;BME280;36281;34.132;-118.018;2024-02-15T05:33:54;100682.63;;;11.72;84.58
50368;BME280;36281;34.132;-118.018;2024-02-15T05:36:25;100682.66;;;11.79;84.64
50368;BME280;36281;34.132;-118.018;2024-02-15T05:38:54;100677.53;;;11.71;84.92
50368;BME280;36281;34.132;-118.018;2024-02-15T05:41:23;100693.25;;;11.72;84.77
50368;BME280;36281;34.132;-118.018;2024-02-15T05:43:53;100689.56;;;11.67;85.17
50368;BME280;36281;34.132;-118.018;2024-02-15T05:46:22;100690.78;;;11.64;85.27
50368;BME280;36281;34.132;-118.018;2024-02-15T05:48:51;100694.25;;;11.64;85.40
50368;BME280;36281;34.132;-118.018;2024-02-15T05:51:22;100700.56;;;11.63;85.59
50368;BME280;36281;34.132;-118.018;2024-02-15T05:53:53;100685.28;;;11.65;85.52
50368;BME280;36281;34.132;-118.018;2024-02-15T05:56:27;100690.38;;;11.67;85.70
50368;BME280;36281;34.132;-118.018;2024-02-15T05:58:57;100700.56;;;11.63;86.19
50368;BME280;36281;34.132;-118.018;2024-02-15T06:01:26;100702.16;;;11.58;86.02
50368;BME280;36281;34.132;-118.018;2024-02-15T06:04:00;100707.44;;;11.51;86.60
50368;BME280;36281;34.132;-118.018;2024-02-15T06:06:29;100702.94;;;11.45;86.78
50368;BME280;36281;34.132;-118.018;2024-02-15T06:09:01;100703.53;;;11.41;87.00
50368;BME280;36281;34.132;-118.018;2024-02-15T06:11:31;100680.59;;;11.26;87.11
50368;BME280;36281;34.132;-118.018;2024-02-15T06:14:00;100718.81;;;11.38;87.05
50368;BME280;36281;34.132;-118.018;2024-02-15T06:16:29;100724.91;;;11.32;87.18
50368;BME280;36281;34.132;-118.018;2024-02-15T06:18:58;100728.38;;;11.33;86.90
50368;BME280;36281;34.132;-118.018;2024-02-15T06:21:28;100719.13;;;11.22;87.01
50368;BME280;36281;34.132;-118.018;2024-02-15T06:23:57;100722.66;;;11.29;86.37
50368;BME280;36281;34.132;-118.018;2024-02-15T06:26:28;100719.34;;;11.27;87.02
50368;BME280;36281;34.132;-118.018;2024-02-15T06:28:57;100724.84;;;11.19;86.71
50368;BME280;36281;34.132;-118.018;2024-02-15T06:31:44;100728.06;;;11.15;87.05
50368;BME280;36281;34.132;-118.018;2024-02-15T06:34:32;100739.50;;;11.15;87.25
50368;BME280;36281;34.132;-118.018;2024-02-15T06:37:38;100749.84;;;11.10;87.25
50368;BME280;36281;34.132;-118.018;2024-02-15T06:40:25;100738.13;;;10.98;87.31
50368;BME280;36281;34.132;-118.018;2024-02-15T06:42:56;100747.53;;;11.00;87.57
50368;BME280;36281;34.132;-118.018;2024-02-15T06:45:25;100747.53;;;11.00;87.68
50368;BME280;36281;34.132;-118.018;2024-02-15T06:47:55;100745.47;;;10.96;88.36
50368;BME280;36281;34.132;-118.018;2024-02-15T06:50:24;100744.22;;;10.92;88.43
50368;BME280;36281;34.132;-118.018;2024-02-15T06:52:55;100746.63;;;10.86;88.61
50368;BME280;36281;34.132;-118.018;2024-02-15T06:55:24;100745.16;;;10.84;88.66
50368;BME280;36281;34.132;-118.018;2024-02-15T06:57:57;100745.56;;;10.81;89.20
50368;BME280;36281;34.132;-118.018;2024-02-15T07:00:26;100740.47;;;10.79;89.29
50368;BME280;36281;34.132;-118.018;2024-02-15T07:02:55;100752.69;;;10.80;89.39
50368;BME280;36281;34.132;-118.018;2024-02-15T07:05:24;100753.88;;;10.78;89.23
50368;BME280;36281;34.132;-118.018;2024-02-15T07:07:56;100748.78;;;10.76;89.03
50368;BME280;36281;34.132;-118.018;2024-02-15T07:10:25;100750.59;;;10.76;89.66
50368;BME280;36281;34.132;-118.018;2024-02-15T07:12:56;100746.50;;;10.73;89.61
50368;BME280;36281;34.132;-118.018;2024-02-15T07:15:25;100739.19;;;10.75;89.03
50368;BME280;36281;34.132;-118.018;2024-02-15T07:17:54;100747.91;;;10.69;89.69
50368;BME280;36281;34.132;-118.018;2024-02-15T07:20:23;100747.63;;;10.64;89.36
50368;BME280;36281;34.132;-118.018;2024-02-15T07:22:52;100744.38;;;10.62;89.76
50368;BME280;36281;34.132;-118.018;2024-02-15T07:25:22;100744.38;;;10.62;89.32
50368;BME280;36281;34.132;-118.018;2024-02-15T07:27:51;100729.25;;;10.56;90.07
50368;BME280;36281;34.132;-118.018;2024-02-15T07:30:23;100729.00;;;10.51;90.46
50368;BME280;36281;34.132;-118.018;2024-02-15T07:32:53;100727.16;;;10.51;90.26
50368;BME280;36281;34.132;-118.018;2024-02-15T07:35:22;100729.50;;;10.61;89.84
50368;BME280;36281;34.132;-118.018;2024-02-15T07:37:54;100729.00;;;10.51;89.77
50368;BME280;36281;34.132;-118.018;2024-02-15T07:40:25;100731.19;;;10.47;89.87
50368;BME280;36281;34.132;-118.018;2024-02-15T07:42:57;100739.66;;;10.36;90.29
50368;BME280;36281;34.132;-118.018;2024-02-15T07:45:28;100748.59;;;10.35;89.71
50368;BME280;36281;34.132;-118.018;2024-02-15T07:47:58;100742.03;;;10.31;90.35
50368;BME280;36281;34.132;-118.018;2024-02-15T07:50:27;100756.28;;;10.30;90.47
50368;BME280;36281;34.132;-118.018;2024-02-15T07:52:57;100748.09;;;10.25;89.94
50368;BME280;36281;34.132;-118.018;2024-02-15T07:55:26;100732.09;;;10.18;90.36
50368;BME280;36281;34.132;-118.018;2024-02-15T07:57:56;100727.56;;;10.12;90.03
50368;BME280;36281;34.132;-118.018;2024-02-15T08:00:29;100735.13;;;10.15;90.37
50368;BME280;36281;34.132;-118.018;2024-02-15T08:02:58;100737.69;;;10.08;90.99
50368;BME280;36281;34.132;-118.018;2024-02-15T08:05:27;100734.16;;;10.01;91.36
50368;BME280;36281;34.132;-118.018;2024-02-15T08:07:57;100735.19;;;10.00;91.70
50368;BME280;36281;34.132;-118.018;2024-02-15T08:10:26;100729.06;;;10.00;91.87
50368;BME280;36281;34.132;-118.018;2024-02-15T08:12:57;100717.06;;;10.04;91.17
50368;BME280;36281;34.132;-118.018;2024-02-15T08:15:28;100718.47;;;10.00;91.61
50368;BME280;36281;34.132;-118.018;2024-02-15T08:17:57;100729.78;;;9.94;92.05
50368;BME280;36281;34.132;-118.018;2024-02-15T08:20:26;100732.16;;;9.89;92.30
50368;BME280;36281;34.132;-118.018;2024-02-15T08:23:00;100712.56;;;9.83;91.95
50368;BME280;36281;34.132;-118.018;2024-02-15T08:25:29;100727.53;;;9.91;91.60
50368;BME280;36281;34.132;-118.018;2024-02-15T08:27:58;100737.84;;;9.86;91.50
50368;BME280;36281;34.132;-118.018;2024-02-15T08:30:36;100734.56;;;9.83;91.58
50368;BME280;36281;34.132;-118.018;2024-02-15T08:33:05;100737.94;;;9.77;92.01
50368;BME280;36281;34.132;-118.018;2024-02-15T08:35:35;100742.41;;;9.77;92.09
50368;BME280;36281;34.132;-118.018;2024-02-15T08:38:05;100742.34;;;9.70;91.70
50368;BME280;36281;34.132;-118.018;2024-02-15T08:40:34;100734.69;;;9.61;92.15
50368;BME280;36281;34.132;-118.018;2024-02-15T08:43:03;100736.34;;;9.62;91.80
50368;BME280;36281;34.132;-118.018;2024-02-15T08:45:34;100740.16;;;9.59;92.02
50368;BME280;36281;34.132;-118.018;2024-02-15T08:48:04;100734.69;;;9.61;92.18
50368;BME280;36281;34.132;-118.018;2024-02-15T08:50:33;100728.94;;;9.57;91.91
50368;BME280;36281;34.132;-118.018;2024-02-15T08:53:03;100729.03;;;9.64;91.77
50368;BME280;36281;34.132;-118.018;2024-02-15T08:55:35;100728.94;;;9.57;92.33
50368;BME280;36281;34.132;-118.018;2024-02-15T08:58:04;100727.84;;;9.51;92.81
50368;BME280;36281;34.132;-118.018;2024-02-15T09:00:35;100722.38;;;9.53;92.31
50368;BME280;36281;34.132;-118.018;2024-02-15T09:03:06;100718.28;;;9.50;92.14
50368;BME280;36281;34.132;-118.018;2024-02-15T09:05:35;100729.56;;;9.44;92.15
50368;BME280;36281;34.132;-118.018;2024-02-15T09:08:05;100726.38;;;9.34;92.88
50368;BME280;36281;34.132;-118.018;2024-02-15T09:10:34;100718.38;;;9.27;93.38
50368;BME280;36281;34.132;-118.018;2024-02-15T09:13:07;100707.88;;;9.34;92.87
50368;BME280;36281;34.132;-118.018;2024-02-15T09:15:38;100715.38;;;9.30;92.92
50368;BME280;36281;34.132;-118.018;2024-02-15T09:18:09;100704.41;;;9.19;93.99
50368;BME280;36281;34.132;-118.018;2024-02-15T09:20:40;100713.81;;;9.21;93.79
50368;BME280;36281;34.132;-118.018;2024-02-15T09:23:13;100710.19;;;9.22;93.18
50368;BME280;36281;34.132;-118.018;2024-02-15T09:25:43;100709.28;;;9.15;93.10
50368;BME280;36281;34.132;-118.018;2024-02-15T09:28:12;100719.47;;;9.18;93.34
50368;BME280;36281;34.132;-118.018;2024-02-15T09:30:44;100715.09;;;9.11;93.67
50368;BME280;36281;34.132;-118.018;2024-02-15T09:33:15;100710.50;;;9.04;94.00
50368;BME280;36281;34.132;-118.018;2024-02-15T09:35:45;100696.13;;;9.07;93.77
50368;BME280;36281;34.132;-118.018;2024-02-15T09:38:15;100699.94;;;9.04;93.59
50368;BME280;36281;34.132;-118.018;2024-02-15T09:40:49;100707.59;;;8.99;93.87
50368;BME280;36281;34.132;-118.018;2024-02-15T09:43:18;100712.81;;;9.07;93.67
50368;BME280;36281;34.132;-118.018;2024-02-15T09:45:49;100717.88;;;8.94;94.09
50368;BME280;36281;34.132;-118.018;2024-02-15T09:48:18;100727.19;;;8.90;94.42
50368;BME280;36281;34.132;-118.018;2024-02-15T09:50:51;100733.28;;;8.91;93.95
50368;BME280;36281;34.132;-118.018;2024-02-15T09:53:21;100738.75;;;8.89;93.46
50368;BME280;36281;34.132;-118.018;2024-02-15T09:56:00;100735.72;;;8.77;93.82
50368;BME280;36281;34.132;-118.018;2024-02-15T09:58:40;100742.28;;;8.82;93.82
50368;BME280;36281;34.132;-118.018;2024-02-15T10:01:13;100736.06;;;8.74;93.97
50368;BME280;36281;34.132;-118.018;2024-02-15T10:03:44;100744.94;;;8.82;93.57
50368;BME280;36281;34.132;-118.018;2024-02-15T10:06:15;100731.16;;;8.71;93.53
50368;BME280;36281;34.132;-118.018;2024-02-15T10:08:49;100740.72;;;8.72;93.88
50368;BME280;36281;34.132;-118.018;2024-02-15T10:11:19;100738.53;;;8.76;93.95
50368;BME280;36281;34.132;-118.018;2024-02-15T10:14:01;100728.50;;;8.71;94.71
50368;BME280;36281;34.132;-118.018;2024-02-15T10:16:40;100711.38;;;8.67;94.50
50368;BME280;36281;34.132;-118.018;2024-02-15T10:19:10;100726.88;;;8.70;94.83
50368;BME280;36281;34.132;-118.018;2024-02-15T10:21:39;100720.16;;;8.83;94.44
50368;BME280;36281;34.132;-118.018;2024-02-15T10:24:17;100717.84;;;8.79;94.52
50368;BME280;36281;34.132;-118.018;2024-02-15T10:26:48;100720.88;;;8.76;94.72
50368;BME280;36281;34.132;-118.018;2024-02-15T10:29:21;100712.47;;;8.73;94.50
50368;BME280;36281;34.132;-118.018;2024-02-15T10:32:01;100713.84;;;8.69;94.88
50368;BME280;36281;34.132;-118.018;2024-02-15T10:34:31;100718.00;;;8.63;94.64
50368;BME280;36281;34.132;-118.018;2024-02-15T10:37:11;100717.66;;;8.66;94.55
50368;BME280;36281;34.132;-118.018;2024-02-15T10:39:43;100714.06;;;8.59;95.03
50368;BME280;36281;34.132;-118.018;2024-02-15T10:42:13;100705.88;;;8.54;95.57
50368;BME280;36281;34.132;-118.018;2024-02-15T10:44:51;100704.41;;;8.51;95.35
50368;BME280;36281;34.132;-118.018;2024-02-15T10:47:28;100700.50;;;8.47;95.64
50368;BME280;36281;34.132;-118.018;2024-02-15T10:49:59;100709.16;;;8.56;95.55
50368;BME280;36281;34.132;-118.018;2024-02-15T10:52:32;100712.34;;;8.51;95.35
50368;BME280;36281;34.132;-118.018;2024-02-15T10:55:04;100680.63;;;8.37;95.74
50368;BME280;36281;34.132;-118.018;2024-02-15T10:57:38;100711.16;;;8.54;96.34
50368;BME280;36281;34.132;-118.018;2024-02-15T11:00:09;100705.25;;;8.52;96.11
50368;BME280;36281;34.132;-118.018;2024-02-15T11:03:00;100707.06;;;8.51;96.54
50368;BME280;36281;34.132;-118.018;2024-02-15T11:05:33;100705.56;;;8.49;96.04
50368;BME280;36281;34.132;-118.018;2024-02-15T11:08:13;100702.41;;;8.53;95.98
50368;BME280;36281;34.132;-118.018;2024-02-15T11:10:54;100712.69;;;8.48;96.40
50368;BME280;36281;34.132;-118.018;2024-02-15T11:13:28;100700.22;;;8.34;96.31
50368;BME280;36281;34.132;-118.018;2024-02-15T11:16:05;100724.97;;;8.41;95.76
50368;BME280;36281;34.132;-118.018;2024-02-15T11:18:53;100710.03;;;8.25;96.17
50368;BME280;36281;34.132;-118.018;2024-02-15T11:21:53;100720.41;;;8.27;96.10
50368;BME280;36281;34.132;-118.018;2024-02-15T11:24:31;100738.59;;;8.45;95.69
50368;BME280;36281;34.132;-118.018;2024-02-15T11:27:12;100737.94;;;8.51;95.75
50368;BME280;36281;34.132;-118.018;2024-02-15T11:29:53;100746.53;;;8.45;95.68
50368;BME280;36281;34.132;-118.018;2024-02-15T11:32:47;100742.28;;;8.36;96.12
50368;BME280;36281;34.132;-118.018;2024-02-15T11:35:23;100755.63;;;8.42;96.10
50368;BME280;36281;34.132;-118.018;2024-02-15T11:37:55;100754.91;;;8.48;95.96
50368;BME280;36281;34.132;-118.018;2024-02-15T11:46:26;100758.78;;;8.38;96.59
50368;BME280;36281;34.132;-118.018;2024-02-15T11:49:01;100759.09;;;8.35;97.01
50368;BME280;36281;34.132;-118.018;2024-02-15T11:51:43;100757.84;;;8.31;97.25
50368;BME280;36281;34.132;-118.018;2024-02-15T11:54:20;100769.25;;;8.23;97.24
50368;BME280;36281;34.132;-118.018;2024-02-15T11:56:58;100761.00;;;8.26;97.65
50368;BME280;36281;34.132;-118.018;2024-02-15T11:59:46;100758.50;;;8.24;97.64
50368;BME280;36281;34.132;-118.018;2024-02-15T12:02:33;100771.88;;;8.23;97.59
50368;BME280;36281;34.132;-118.018;2024-02-15T12:05:21;100778.16;;;8.22;97.87
50368;BME280;36281;34.132;-118.018;2024-02-15T12:08:12;100778.31;;;8.20;98.40
50368;BME280;36281;34.132;-118.018;2024-02-15T12:11:00;100766.72;;;8.29;97.62
50368;BME280;36281;34.132;-118.018;2024-02-15T12:13:53;100767.22;;;8.33;97.83
50368;BME280;36281;34.132;-118.018;2024-02-15T12:16:44;100756.97;;;8.30;97.88
50368;BME280;36281;34.132;-118.018;2024-02-15T12:19:32;100746.78;;;8.27;98.05
50368;BME280;36281;34.132;-118.018;2024-02-15T12:22:07;100753.00;;;8.34;98.18
50368;BME280;36281;34.132;-118.018;2024-02-15T12:24:40;100751.66;;;8.46;97.65
50368;BME280;36281;34.132;-118.018;2024-02-15T12:27:15;100745.88;;;8.43;97.43
50368;BME280;36281;34.132;-118.018;2024-02-15T12:29:45;100737.16;;;8.34;97.71
50368;BME280;36281;34.132;-118.018;2024-02-15T12:32:21;100752.84;;;8.36;97.71
50368;BME280;36281;34.132;-118.018;2024-02-15T12:35:09;100758.28;;;8.34;98.01
50368;BME280;36281;34.132;-118.018;2024-02-15T12:37:48;100753.72;;;8.28;98.22
50368;BME280;36281;34.132;-118.018;2024-02-15T12:40:20;100766.44;;;8.24;98.87
50368;BME280;36281;34.132;-118.018;2024-02-15T12:42:56;100772.38;;;8.26;98.48
50368;BME280;36281;34.132;-118.018;2024-02-15T12:45:26;100782.56;;;8.29;98.55
50368;BME280;36281;34.132;-118.018;2024-02-15T12:47:59;100779.09;;;8.29;98.80
50368;BME280;36281;34.132;-118.018;2024-02-15T12:50:32;100780.84;;;8.45;97.78
50368;BME280;36281;34.132;-118.018;2024-02-15T12:53:03;100783.66;;;8.43;97.32